createdAt,value
2022-09-06T00:00:23.598Z,1.25
2022-09-06T00:02:50.876Z,1.50
2022-09-06T00:05:18.385Z,1.33
2022-09-06T00:07:45.599Z,1.35
2022-09-06T00:10:13.669Z,1.08
2022-09-06T00:12:41.393Z,1.00
2022-09-06T00:15:09.106Z,1.00
2022-09-06T00:17:36.737Z,1.50
2022-09-06T00:20:05.175Z,1.38
2022-09-06T00:22:32.339Z,1.30
2022-09-06T00:24:59.422Z,1.17
2022-09-06T00:27:26.609Z,1.25
2022-09-06T00:29:53.695Z,1.10
2022-09-06T00:32:20.829Z,1.20
2022-09-06T00:34:47.964Z,1.20
2022-09-06T00:37:15.092Z,1.17
2022-09-06T00:39:42.277Z,1.30
2022-09-06T00:42:11.180Z,1.30
2022-09-06T00:44:39.608Z,1.40
2022-09-06T00:47:08.798Z,0.98
2022-09-06T00:49:46.626Z,1.10
2022-09-06T00:52:16.811Z,1.00
2022-09-06T00:54:44.220Z,1.13
2022-09-06T00:57:11.939Z,1.67
2022-09-06T00:59:41.299Z,1.27
2022-09-06T01:02:09.680Z,1.30
2022-09-06T01:04:39.127Z,1.10
2022-09-06T01:07:24.859Z,1.20
2022-09-06T01:10:05.229Z,1.23
2022-09-06T01:13:17.750Z,0.95
2022-09-06T01:16:03.218Z,1.27
2022-09-06T01:18:56.994Z,1.20
2022-09-06T01:21:24.056Z,1.10
2022-09-06T01:24:21.286Z,1.30
2022-09-06T01:27:15.884Z,1.27
2022-09-06T01:29:50.642Z,1.38
2022-09-06T01:32:32.818Z,1.10
2022-09-06T01:35:25.378Z,1.10
2022-09-06T01:37:52.734Z,1.50
2022-09-06T01:40:19.833Z,1.00
2022-09-06T01:42:48.893Z,1.05
2022-09-06T01:45:19.691Z,1.15
2022-09-06T01:48:24.875Z,1.15
2022-09-06T01:51:04.343Z,1.40
2022-09-06T01:53:54.815Z,1.55
2022-09-06T01:57:00.350Z,1.33
2022-09-06T01:59:41.029Z,1.13
2022-09-06T02:02:19.462Z,1.20
2022-09-06T02:04:53.076Z,1.40
2022-09-06T02:07:27.764Z,1.40
2022-09-06T02:10:08.677Z,1.20
2022-09-06T02:12:39.438Z,1.10
2022-09-06T02:15:10.630Z,1.42
2022-09-06T02:17:45.482Z,1.48
2022-09-06T02:20:26.863Z,1.23
2022-09-06T02:22:59.891Z,1.38
2022-09-06T02:27:57.506Z,1.20
2022-09-06T02:30:24.977Z,1.05
2022-09-06T02:32:59.941Z,1.35
2022-09-06T02:35:27.464Z,1.30
2022-09-06T02:37:56.046Z,1.30
2022-09-06T02:40:24.185Z,1.27
2022-09-06T02:42:51.318Z,1.42
2022-09-06T02:45:18.436Z,1.40
2022-09-06T02:47:45.557Z,1.45
2022-09-06T02:50:13.414Z,1.40
2022-09-06T02:52:40.550Z,1.73
2022-09-06T02:55:08.307Z,1.45
2022-09-06T02:57:35.817Z,1.50
2022-09-06T03:00:05.123Z,1.85
2022-09-06T03:02:32.287Z,1.90
2022-09-06T03:04:59.476Z,1.80
2022-09-06T03:07:26.711Z,2.38
2022-09-06T03:09:53.828Z,2.00
2022-09-06T03:12:20.973Z,2.05
2022-09-06T03:14:50.149Z,2.78
2022-09-06T03:17:20.200Z,2.00
2022-09-06T03:19:47.376Z,2.47
2022-09-06T03:22:14.468Z,2.50
2022-09-06T03:24:41.628Z,2.42
2022-09-06T03:27:08.750Z,2.20
2022-09-06T03:29:35.847Z,2.17
2022-09-06T03:32:03.130Z,2.33
2022-09-06T03:34:30.260Z,2.28
2022-09-06T03:36:57.355Z,2.35
2022-09-06T03:39:24.615Z,2.33
2022-09-06T03:41:51.796Z,2.80
2022-09-06T03:44:18.937Z,2.42
2022-09-06T03:46:46.503Z,2.50
2022-09-06T03:49:13.651Z,2.30
2022-09-06T03:51:40.842Z,2.10
2022-09-06T03:54:07.947Z,1.85
2022-09-06T03:56:35.837Z,1.92
2022-09-06T03:59:03.208Z,1.92
2022-09-06T04:01:30.485Z,1.77
2022-09-06T04:03:57.618Z,1.85
2022-09-06T04:06:24.737Z,2.10
2022-09-06T04:08:51.870Z,1.80
2022-09-06T04:11:19.286Z,2.03
2022-09-06T04:13:46.404Z,2.05
2022-09-06T04:16:13.558Z,2.40
2022-09-06T04:18:40.752Z,2.13
2022-09-06T04:21:07.869Z,1.85
2022-09-06T04:23:39.673Z,2.00
2022-09-06T04:26:07.089Z,2.10
2022-09-06T04:28:36.959Z,2.00
2022-09-06T04:31:05.405Z,1.58
2022-09-06T04:33:35.092Z,1.77
2022-09-06T04:36:04.972Z,1.70
2022-09-06T04:38:37.222Z,1.75
2022-09-06T04:41:05.370Z,1.77
2022-09-06T04:43:32.766Z,1.65
2022-09-06T04:46:09.403Z,1.70
2022-09-06T04:48:36.669Z,1.83
2022-09-06T04:51:03.863Z,1.73
2022-09-06T04:53:30.998Z,1.70
2022-09-06T04:55:58.804Z,1.80
2022-09-06T04:58:26.044Z,1.75
2022-09-06T05:00:53.356Z,1.63
2022-09-06T05:03:20.574Z,1.70
2022-09-06T05:05:47.690Z,2.13
2022-09-06T05:08:15.181Z,1.50
2022-09-06T05:10:42.300Z,1.52
2022-09-06T05:13:09.374Z,1.30
2022-09-06T05:15:36.487Z,1.33
2022-09-06T05:18:05.174Z,1.33
2022-09-06T05:20:32.903Z,1.80
2022-09-06T05:23:00.132Z,1.42
2022-09-06T05:25:27.324Z,1.60
2022-09-06T05:27:54.513Z,1.30
2022-09-06T05:30:21.635Z,1.50
2022-09-06T05:32:48.803Z,1.48
2022-09-06T05:35:15.979Z,1.23
2022-09-06T05:37:43.031Z,1.20
2022-09-06T05:40:10.555Z,1.50
2022-09-06T05:42:38.225Z,1.40
2022-09-06T05:45:06.975Z,1.25
2022-09-06T05:47:35.606Z,1.30
2022-09-06T05:50:03.594Z,1.35
2022-09-06T05:52:31.518Z,1.42
2022-09-06T05:55:02.590Z,1.20
2022-09-06T05:57:31.639Z,1.10
2022-09-06T05:59:58.785Z,1.10
2022-09-06T06:02:26.448Z,0.98
2022-09-06T06:04:54.713Z,1.00
2022-09-06T06:07:22.192Z,1.30
2022-09-06T06:09:49.326Z,1.38
2022-09-06T06:12:16.549Z,1.30
2022-09-06T06:14:43.691Z,1.20
2022-09-06T06:17:10.809Z,1.30
2022-09-06T06:19:37.951Z,1.50
2022-09-06T06:22:05.193Z,1.02
2022-09-06T06:24:32.409Z,1.20
2022-09-06T06:26:59.662Z,1.50
2022-09-06T06:29:26.834Z,1.30
2022-09-06T06:31:54.009Z,1.50
2022-09-06T06:34:22.091Z,1.50
2022-09-06T06:36:49.262Z,1.92
2022-09-06T06:39:16.461Z,1.70
2022-09-06T06:41:43.835Z,1.90
2022-09-06T06:46:58.092Z,1.80
2022-09-06T06:49:25.495Z,2.10
2022-09-06T06:51:53.404Z,1.88
2022-09-06T06:54:20.830Z,2.25
2022-09-06T06:56:48.400Z,2.30
2022-09-06T06:59:15.796Z,2.60
2022-09-06T07:01:44.888Z,2.83
2022-09-06T07:04:12.738Z,3.10
2022-09-06T07:12:30.666Z,3.50
2022-09-06T07:14:57.811Z,3.47
2022-09-06T07:17:24.963Z,2.80
2022-09-06T07:22:40.594Z,3.33
2022-09-06T07:25:09.566Z,2.92
2022-09-06T07:27:52.857Z,3.38
2022-09-06T07:30:20.436Z,3.25
2022-09-06T07:32:48.197Z,3.35
2022-09-06T07:35:15.395Z,3.83
2022-09-06T07:37:42.552Z,3.22
2022-09-06T07:40:10.536Z,3.72
2022-09-06T07:42:38.013Z,3.13
2022-09-06T07:45:05.724Z,3.42
2022-09-06T07:53:11.089Z,3.65
2022-09-06T07:55:42.284Z,3.00
2022-09-06T07:58:09.387Z,2.92
2022-09-06T08:00:36.790Z,3.17
2022-09-06T08:03:04.597Z,3.00
2022-09-06T08:11:09.116Z,2.83
2022-09-06T08:13:37.345Z,2.47
2022-09-06T08:16:09.734Z,3.17
2022-09-06T08:18:38.264Z,3.20
2022-09-06T08:21:12.574Z,3.28
2022-09-06T08:23:44.771Z,3.33
2022-09-06T08:26:17.418Z,3.25
2022-09-06T08:31:46.092Z,2.85
2022-09-06T08:34:33.879Z,2.70
2022-09-06T08:37:04.338Z,2.45
2022-09-06T08:39:31.802Z,2.10
2022-09-06T08:42:05.544Z,3.20
2022-09-06T08:44:58.300Z,3.03
2022-09-06T08:47:29.370Z,2.20
2022-09-06T08:50:16.928Z,2.25
2022-09-06T08:53:17.284Z,2.20
2022-09-06T08:56:05.295Z,1.88
2022-09-06T08:58:56.123Z,1.90
2022-09-06T09:01:30.020Z,1.80
2022-09-06T09:04:03.002Z,1.95
2022-09-06T09:06:32.254Z,1.90
2022-09-06T09:09:08.517Z,2.15
2022-09-06T09:11:36.573Z,1.95
2022-09-06T09:14:16.187Z,1.65
2022-09-06T09:16:44.237Z,1.73
2022-09-06T09:19:11.461Z,1.67
2022-09-06T09:21:40.621Z,1.80
2022-09-06T09:24:10.354Z,1.88
2022-09-06T09:27:16.304Z,1.50
2022-09-06T09:32:45.479Z,1.88
2022-09-06T09:35:41.106Z,1.77
2022-09-06T09:38:19.341Z,2.08
2022-09-06T09:41:05.611Z,2.03
2022-09-06T09:43:39.948Z,1.90
2022-09-06T09:46:16.272Z,2.05
2022-09-06T09:49:05.746Z,1.58
2022-09-06T09:51:38.445Z,1.70
2022-09-06T09:54:08.446Z,1.58
2022-09-06T09:56:41.619Z,1.77
2022-09-06T09:59:23.036Z,1.48
2022-09-06T10:01:55.701Z,1.48
2022-09-06T10:04:45.625Z,1.63
2022-09-06T10:07:21.789Z,2.10
2022-09-06T10:09:50.207Z,1.60
2022-09-06T10:12:30.821Z,1.50
2022-09-06T10:15:00.213Z,1.60
2022-09-06T10:20:18.438Z,1.63
2022-09-06T10:22:51.085Z,1.80
2022-09-06T10:25:40.056Z,1.35
2022-09-06T10:28:30.296Z,1.73
2022-09-06T10:30:57.653Z,1.70
2022-09-06T10:33:33.788Z,1.90
2022-09-06T10:36:03.499Z,1.95
2022-09-06T10:38:54.417Z,1.70
2022-09-06T10:41:43.486Z,2.33
2022-09-06T10:44:22.408Z,2.20
2022-09-06T10:46:54.804Z,2.28
2022-09-06T10:49:21.870Z,2.30
2022-09-06T10:52:01.434Z,2.03
2022-09-06T10:54:31.603Z,1.67
2022-09-06T11:00:13.687Z,1.40
2022-09-06T11:06:04.593Z,1.30
2022-09-06T11:08:53.448Z,1.40
2022-09-06T11:11:35.636Z,1.58
2022-09-06T11:14:10.726Z,1.45
2022-09-06T11:16:54.010Z,1.60
2022-09-06T11:19:31.642Z,1.70
2022-09-06T11:22:05.318Z,1.42
2022-09-06T11:24:42.384Z,1.80
2022-09-06T11:27:34.415Z,1.20
2022-09-06T11:30:03.677Z,1.15
2022-09-06T11:32:45.777Z,1.20
2022-09-06T11:35:30.339Z,1.33
2022-09-06T11:38:00.511Z,1.23
2022-09-06T11:40:41.769Z,1.25
2022-09-06T11:43:12.545Z,1.52
2022-09-06T11:45:47.798Z,1.42
2022-09-06T11:48:24.229Z,1.60
2022-09-06T11:50:54.209Z,1.70
2022-09-06T11:53:24.131Z,1.50
2022-09-06T11:55:52.756Z,1.55
2022-09-06T11:58:47.434Z,1.73
2022-09-06T12:01:16.713Z,1.75
2022-09-06T12:06:35.972Z,1.90
2022-09-06T12:09:34.962Z,2.10
2022-09-06T12:12:03.822Z,1.98
2022-09-06T12:14:36.102Z,1.90
2022-09-06T12:17:07.215Z,2.28
2022-09-06T12:19:53.808Z,2.25
2022-09-06T12:22:27.065Z,2.00
2022-09-06T12:25:15.856Z,2.20
2022-09-06T12:28:02.644Z,1.90
2022-09-06T12:30:36.196Z,2.40
2022-09-06T12:33:23.561Z,2.75
2022-09-06T12:35:59.281Z,2.55
2022-09-06T12:38:27.088Z,2.20
2022-09-06T12:40:59.156Z,2.05
2022-09-06T12:43:27.222Z,2.63
2022-09-06T12:45:54.482Z,3.03
2022-09-06T12:48:33.512Z,2.47
2022-09-06T12:51:06.784Z,2.53
2022-09-06T12:53:35.083Z,1.85
2022-09-06T12:56:09.877Z,2.30
2022-09-06T12:58:38.797Z,1.70
2022-09-06T13:01:12.590Z,1.80
2022-09-06T13:03:54.108Z,1.67
2022-09-06T13:06:27.144Z,1.63
2022-09-06T13:08:57.371Z,1.50
2022-09-06T13:11:31.667Z,1.90
2022-09-06T13:13:59.554Z,1.80
2022-09-06T13:16:37.336Z,1.90
2022-09-06T13:19:16.815Z,1.80
2022-09-06T13:21:46.437Z,2.00
2022-09-06T13:24:47.664Z,2.13
2022-09-06T13:27:35.862Z,2.53
2022-09-06T13:30:07.126Z,2.40
2022-09-06T13:32:35.907Z,2.13
2022-09-06T13:35:04.595Z,2.50
2022-09-06T13:37:35.791Z,2.85
2022-09-06T13:40:23.117Z,2.80
2022-09-06T13:43:00.423Z,2.60
2022-09-06T13:45:29.981Z,3.03
2022-09-06T13:48:19.056Z,2.92
2022-09-06T13:50:45.001Z,2.70
2022-09-06T13:53:12.149Z,2.80
2022-09-06T13:55:40.264Z,3.20
2022-09-06T13:58:07.418Z,2.80
2022-09-06T14:00:34.546Z,3.20
2022-09-06T14:03:02.218Z,2.67
2022-09-06T14:05:29.346Z,2.58
2022-09-06T14:07:57.255Z,2.80
2022-09-06T14:10:24.766Z,3.33
2022-09-06T14:12:54.095Z,2.92
2022-09-06T14:15:21.670Z,2.95
2022-09-06T14:17:49.354Z,2.58
2022-09-06T14:20:16.576Z,3.00
2022-09-06T14:22:44.090Z,3.00
2022-09-06T14:25:11.376Z,2.85
2022-09-06T14:27:38.655Z,2.90
2022-09-06T14:30:06.139Z,2.92
2022-09-06T14:32:33.318Z,2.80
2022-09-06T14:35:02.170Z,3.38
2022-09-06T14:37:30.303Z,2.90
2022-09-06T14:40:26.081Z,3.05
2022-09-06T14:42:53.336Z,2.28
2022-09-06T14:45:20.675Z,2.78
2022-09-06T14:47:48.457Z,2.33
2022-09-06T14:50:15.625Z,2.25
2022-09-06T14:52:42.811Z,2.10
2022-09-06T14:55:10.117Z,2.35
2022-09-06T14:57:38.018Z,2.13
2022-09-06T15:00:08.690Z,1.83
2022-09-06T15:02:35.963Z,2.40
2022-09-06T15:05:03.700Z,1.92
2022-09-06T15:07:31.873Z,2.05
2022-09-06T15:09:59.243Z,1.95
2022-09-06T15:12:27.377Z,2.08
2022-09-06T15:14:54.627Z,2.05
2022-09-06T15:17:21.769Z,2.00
2022-09-06T15:19:49.095Z,1.73
2022-09-06T15:22:16.302Z,1.75
2022-09-06T15:24:43.545Z,2.15
2022-09-06T15:27:10.742Z,1.90
2022-09-06T15:29:37.927Z,2.13
2022-09-06T15:32:05.197Z,2.20
2022-09-06T15:34:32.834Z,2.17
2022-09-06T15:37:00.483Z,2.15
2022-09-06T15:39:27.736Z,2.00
2022-09-06T15:41:55.016Z,2.40
2022-09-06T15:44:22.193Z,2.58
2022-09-06T15:47:00.849Z,2.00
2022-09-06T15:49:33.258Z,2.22
2022-09-06T15:52:02.462Z,2.20
2022-09-06T15:54:48.814Z,2.42
2022-09-06T15:57:16.959Z,2.10
2022-09-06T15:59:44.932Z,2.30
2022-09-06T16:02:12.677Z,2.40
2022-09-06T16:04:40.032Z,2.50
2022-09-06T16:07:07.327Z,2.40
2022-09-06T16:09:34.695Z,2.30
2022-09-06T16:12:01.910Z,2.17
2022-09-06T16:14:29.402Z,2.60
2022-09-06T16:16:57.609Z,2.22
2022-09-06T16:19:26.271Z,2.10
2022-09-06T16:21:53.757Z,2.33
2022-09-06T16:24:21.519Z,2.08
2022-09-06T16:26:49.092Z,1.88
2022-09-06T16:29:18.317Z,1.88
2022-09-06T16:31:46.374Z,1.52
2022-09-06T16:34:13.922Z,1.55
2022-09-06T16:36:41.430Z,1.63
2022-09-06T16:39:09.550Z,1.45
2022-09-06T16:41:40.156Z,1.88
2022-09-06T16:44:09.087Z,1.50
2022-09-06T16:46:36.754Z,1.42
2022-09-06T16:49:04.734Z,1.83
2022-09-06T16:51:32.628Z,1.90
2022-09-06T16:54:00.661Z,1.98
2022-09-06T16:56:31.904Z,2.10
2022-09-06T16:59:00.810Z,1.70
2022-09-06T17:01:30.131Z,1.50
2022-09-06T17:03:57.689Z,1.85
2022-09-06T17:06:25.272Z,1.50
2022-09-06T17:08:52.480Z,1.55
2022-09-06T17:11:22.021Z,1.65
2022-09-06T17:13:51.251Z,1.52
2022-09-06T17:16:38.607Z,1.95
2022-09-06T17:19:07.183Z,1.70
2022-09-06T17:21:34.935Z,1.50
2022-09-06T17:24:05.539Z,1.98
2022-09-06T17:26:35.325Z,1.73
2022-09-06T17:29:02.990Z,2.08
2022-09-06T17:31:33.479Z,2.00
2022-09-06T17:34:00.791Z,1.90
2022-09-06T17:36:33.341Z,1.75
2022-09-06T17:39:13.977Z,2.10
2022-09-06T17:41:45.823Z,1.42
2022-09-06T17:44:15.768Z,2.20
2022-09-06T17:46:57.122Z,1.77
2022-09-06T17:49:32.922Z,1.67
2022-09-06T17:52:00.306Z,1.83
2022-09-06T17:54:32.030Z,1.83
2022-09-06T17:56:59.240Z,2.10
2022-09-06T17:59:26.399Z,2.15
2022-09-06T18:01:53.644Z,2.28
2022-09-06T18:04:20.931Z,2.95
2022-09-06T18:06:48.199Z,2.63
2022-09-06T18:09:17.663Z,2.53
2022-09-06T18:11:48.090Z,2.50
2022-09-06T18:14:18.382Z,2.67
2022-09-06T18:16:48.100Z,2.60
2022-09-06T18:19:16.126Z,2.30
2022-09-06T18:21:43.482Z,2.67
2022-09-06T18:24:13.831Z,2.25
2022-09-06T18:26:41.797Z,1.98
2022-09-06T18:29:11.823Z,2.13
2022-09-06T18:31:39.887Z,2.63
2022-09-06T18:34:08.919Z,1.75
2022-09-06T18:36:37.461Z,2.10
2022-09-06T18:39:05.443Z,1.80
2022-09-06T18:41:52.067Z,2.00
2022-09-06T18:44:19.440Z,2.13
2022-09-06T18:46:47.289Z,2.42
2022-09-06T18:49:15.610Z,1.80
2022-09-06T18:51:43.459Z,2.00
2022-09-06T18:54:11.166Z,2.30
2022-09-06T18:56:38.668Z,1.70
2022-09-06T18:59:06.567Z,2.30
2022-09-06T19:01:35.258Z,1.83
2022-09-06T19:04:04.195Z,2.10
2022-09-06T19:06:35.944Z,2.15
2022-09-06T19:09:08.617Z,2.15
2022-09-06T19:11:36.550Z,2.25
2022-09-06T19:14:05.220Z,2.08
2022-09-06T19:16:32.832Z,1.50
2022-09-06T19:19:08.589Z,2.05
2022-09-06T19:21:40.961Z,1.80
2022-09-06T19:24:11.405Z,1.90
2022-09-06T19:26:41.756Z,2.20
2022-09-06T19:29:14.573Z,2.28
2022-09-06T19:31:42.641Z,2.35
2022-09-06T19:34:12.321Z,2.20
2022-09-06T19:36:39.659Z,2.33
2022-09-06T19:39:09.858Z,2.30
2022-09-06T19:41:40.336Z,2.22
2022-09-06T19:44:09.067Z,2.17
2022-09-06T19:46:37.687Z,2.38
2022-09-06T19:49:08.308Z,2.22
2022-09-06T19:51:37.014Z,1.80
2022-09-06T19:54:04.654Z,2.10
2022-09-06T19:56:34.652Z,1.80
2022-09-06T19:59:06.975Z,2.20
2022-09-06T20:01:36.025Z,2.28
2022-09-06T20:04:07.119Z,2.20
2022-09-06T20:06:35.075Z,2.28
2022-09-06T20:09:03.788Z,2.05
2022-09-06T20:11:33.108Z,2.13
2022-09-06T20:14:01.167Z,2.28
2022-09-06T20:16:28.858Z,2.38
2022-09-06T20:18:59.049Z,2.50
2022-09-06T20:21:29.945Z,2.33
2022-09-06T20:23:59.473Z,2.38
2022-09-06T20:26:28.961Z,2.13
2022-09-06T20:29:01.318Z,2.15
2022-09-06T20:31:30.662Z,2.30
2022-09-06T20:34:02.570Z,2.45
2022-09-06T20:36:30.369Z,2.17
2022-09-06T20:38:57.642Z,2.30
2022-09-06T20:41:26.583Z,2.47
2022-09-06T20:43:59.149Z,2.58
2022-09-06T20:46:29.423Z,2.63
2022-09-06T20:48:58.170Z,1.90
2022-09-06T20:51:26.182Z,2.05
2022-09-06T20:53:55.721Z,2.67
2022-09-06T20:56:28.152Z,2.42
2022-09-06T20:59:00.924Z,2.38
2022-09-06T21:01:35.123Z,2.42
2022-09-06T21:04:04.641Z,2.30
2022-09-06T21:06:36.366Z,2.40
2022-09-06T21:09:12.467Z,2.00
2022-09-06T21:11:40.307Z,2.30
2022-09-06T21:14:08.099Z,2.20
2022-09-06T21:16:36.751Z,2.28
2022-09-06T21:19:07.769Z,1.90
2022-09-06T21:21:35.835Z,2.30
2022-09-06T21:24:04.732Z,2.15
2022-09-06T21:26:32.467Z,2.25
2022-09-06T21:28:59.936Z,2.20
2022-09-06T21:31:32.150Z,2.20
2022-09-06T21:34:03.388Z,1.90
2022-09-06T21:36:34.027Z,2.00
2022-09-06T21:39:04.317Z,2.10
2022-09-06T21:41:32.234Z,2.50
2022-09-06T21:44:01.023Z,2.20
2022-09-06T21:46:34.221Z,2.13
2022-09-06T21:49:07.562Z,2.22
2022-09-06T21:51:35.260Z,2.22
2022-09-06T21:54:06.061Z,2.00
2022-09-06T21:56:36.040Z,1.67
2022-09-06T21:59:04.834Z,2.40
2022-09-06T22:01:34.485Z,2.22
2022-09-06T22:04:02.484Z,2.10
2022-09-06T22:06:32.062Z,1.90
2022-09-06T22:09:02.211Z,2.33
2022-09-06T22:11:34.369Z,2.17
2022-09-06T22:14:04.358Z,2.10
2022-09-06T22:16:33.383Z,2.08
2022-09-06T22:19:00.918Z,1.98
2022-09-06T22:21:28.119Z,2.22
2022-09-06T22:23:57.931Z,2.08
2022-09-06T22:26:27.331Z,2.15
2022-09-06T22:28:59.989Z,2.15
2022-09-06T22:31:28.861Z,1.88
2022-09-06T22:33:57.031Z,2.30
2022-09-06T22:36:24.581Z,2.03
2022-09-06T22:38:56.433Z,2.47
2022-09-06T22:41:25.384Z,2.00
2022-09-06T22:43:52.617Z,2.20
2022-09-06T22:46:20.439Z,2.22
2022-09-06T22:48:47.693Z,2.75
2022-09-06T22:51:15.142Z,1.98
2022-09-06T22:53:42.297Z,2.42
2022-09-06T22:56:09.399Z,2.70
2022-09-06T22:58:36.582Z,2.20
2022-09-06T23:01:09.645Z,2.65
2022-09-06T23:03:37.410Z,2.20
2022-09-06T23:06:05.584Z,2.90
2022-09-06T23:08:35.007Z,2.45
2022-09-06T23:11:10.032Z,2.75
2022-09-06T23:13:37.956Z,2.58
2022-09-06T23:16:10.373Z,2.60
2022-09-06T23:18:37.890Z,2.35
2022-09-06T23:21:06.906Z,2.58
2022-09-06T23:23:35.340Z,2.45
2022-09-06T23:26:15.240Z,2.35
2022-09-06T23:28:42.950Z,2.40
2022-09-06T23:31:12.746Z,2.40
2022-09-06T23:33:41.199Z,2.53
2022-09-06T23:36:10.860Z,2.63
2022-09-06T23:38:39.352Z,2.42
2022-09-06T23:41:08.502Z,2.40
2022-09-06T23:43:35.781Z,2.25
2022-09-06T23:46:03.079Z,2.40
2022-09-06T23:48:30.349Z,2.40
2022-09-06T23:50:57.527Z,2.33
2022-09-06T23:53:24.748Z,2.65
2022-09-06T23:55:51.940Z,2.70
2022-09-06T23:58:19.319Z,2.50
